sensor_id;sensor_type;location;lat;lon;timestamp;temperature;humidity
11246;DHT22;59870;50.106;8.580;2022-07-23T00:01:04;26.30;59.60
11246;DHT22;59870;50.106;8.580;2022-07-23T00:03:31;26.00;59.50
11246;DHT22;59870;50.106;8.580;2022-07-23T00:05:59;26.00;59.50
11246;DHT22;59870;50.106;8.580;2022-07-23T00:08:26;26.00;59.50
11246;DHT22;59870;50.106;8.580;2022-07-23T00:10:53;26.00;59.80
11246;DHT22;59870;50.106;8.580;2022-07-23T00:13:21;26.00;59.70
11246;DHT22;59870;50.106;8.580;2022-07-23T00:15:48;26.60;60.20
11246;DHT22;59870;50.106;8.580;2022-07-23T00:18:15;26.00;59.80
11246;DHT22;59870;50.106;8.580;2022-07-23T00:20:43;26.00;60.00
11246;DHT22;59870;50.106;8.580;2022-07-23T00:23:10;26.50;60.30
11246;DHT22;59870;50.106;8.580;2022-07-23T00:25:38;25.90;60.00
11246;DHT22;59870;50.106;8.580;2022-07-23T00:28:05;25.90;60.10
11246;DHT22;59870;50.106;8.580;2022-07-23T00:30:33;25.90;60.20
11246;DHT22;59870;50.106;8.580;2022-07-23T00:33:04;26.30;60.70
11246;DHT22;59870;50.106;8.580;2022-07-23T00:35:37;25.80;60.80
11246;DHT22;59870;50.106;8.580;2022-07-23T00:38:05;26.00;61.00
11246;DHT22;59870;50.106;8.580;2022-07-23T00:40:32;25.80;61.10
11246;DHT22;59870;50.106;8.580;2022-07-23T00:43:00;26.30;61.70
11246;DHT22;59870;50.106;8.580;2022-07-23T00:45:28;25.80;61.50
11246;DHT22;59870;50.106;8.580;2022-07-23T00:47:56;25.70;61.80
11246;DHT22;59870;50.106;8.580;2022-07-23T00:50:23;25.70;61.60
11246;DHT22;59870;50.106;8.580;2022-07-23T00:52:52;25.70;61.80
11246;DHT22;59870;50.106;8.580;2022-07-23T00:55:20;25.80;61.80
11246;DHT22;59870;50.106;8.580;2022-07-23T00:57:47;25.80;61.60
11246;DHT22;59870;50.106;8.580;2022-07-23T01:00:15;25.70;62.00
11246;DHT22;59870;50.106;8.580;2022-07-23T01:02:43;25.70;62.20
11246;DHT22;59870;50.106;8.580;2022-07-23T01:05:10;25.70;62.30
11246;DHT22;59870;50.106;8.580;2022-07-23T01:07:38;25.70;63.00
11246;DHT22;59870;50.106;8.580;2022-07-23T01:10:06;25.60;62.60
11246;DHT22;59870;50.106;8.580;2022-07-23T01:12:54;25.60;63.00
11246;DHT22;59870;50.106;8.580;2022-07-23T01:15:22;25.90;63.50
11246;DHT22;59870;50.106;8.580;2022-07-23T01:17:50;25.40;63.50
11246;DHT22;59870;50.106;8.580;2022-07-23T01:20:18;25.90;64.40
11246;DHT22;59870;50.106;8.580;2022-07-23T01:22:46;25.30;64.40
11246;DHT22;59870;50.106;8.580;2022-07-23T01:25:14;25.20;64.50
11246;DHT22;59870;50.106;8.580;2022-07-23T01:27:49;25.90;65.50
11246;DHT22;59870;50.106;8.580;2022-07-23T01:30:16;25.50;64.90
11246;DHT22;59870;50.106;8.580;2022-07-23T01:32:44;25.30;64.90
11246;DHT22;59870;50.106;8.580;2022-07-23T01:35:12;25.30;65.40
11246;DHT22;59870;50.106;8.580;2022-07-23T01:37:39;25.90;66.50
11246;DHT22;59870;50.106;8.580;2022-07-23T01:40:07;25.50;66.40
11246;DHT22;59870;50.106;8.580;2022-07-23T01:42:36;25.30;66.20
11246;DHT22;59870;50.106;8.580;2022-07-23T01:45:04;25.30;66.40
11246;DHT22;59870;50.106;8.580;2022-07-23T01:47:33;25.40;66.40
11246;DHT22;59870;50.106;8.580;2022-07-23T01:50:01;25.40;66.40
11246;DHT22;59870;50.106;8.580;2022-07-23T01:52:48;26.00;67.30
11246;DHT22;59870;50.106;8.580;2022-07-23T01:55:16;26.00;67.80
11246;DHT22;59870;50.106;8.580;2022-07-23T01:57:48;25.30;67.30
11246;DHT22;59870;50.106;8.580;2022-07-23T02:00:19;25.30;68.40
11246;DHT22;59870;50.106;8.580;2022-07-23T02:02:48;25.30;68.20
11246;DHT22;59870;50.106;8.580;2022-07-23T02:05:16;25.30;68.40
11246;DHT22;59870;50.106;8.580;2022-07-23T02:07:45;25.40;68.60
11246;DHT22;59870;50.106;8.580;2022-07-23T02:10:12;25.40;68.40
11246;DHT22;59870;50.106;8.580;2022-07-23T02:12:40;26.00;69.10
11246;DHT22;59870;50.106;8.580;2022-07-23T02:15:09;25.40;68.40
11246;DHT22;59870;50.106;8.580;2022-07-23T02:17:39;25.80;69.20
11246;DHT22;59870;50.106;8.580;2022-07-23T02:20:09;25.30;69.20
11246;DHT22;59870;50.106;8.580;2022-07-23T02:22:37;25.20;69.60
11246;DHT22;59870;50.106;8.580;2022-07-23T02:25:05;25.20;69.70
11246;DHT22;59870;50.106;8.580;2022-07-23T02:27:34;25.20;69.80
11246;DHT22;59870;50.106;8.580;2022-07-23T02:30:05;25.80;70.10
11246;DHT22;59870;50.106;8.580;2022-07-23T02:32:35;25.20;70.20
11246;DHT22;59870;50.106;8.580;2022-07-23T02:35:03;25.20;70.40
11246;DHT22;59870;50.106;8.580;2022-07-23T02:37:32;25.20;70.30
11246;DHT22;59870;50.106;8.580;2022-07-23T02:39:59;25.20;70.80
11246;DHT22;59870;50.106;8.580;2022-07-23T02:42:27;25.10;71.00
11246;DHT22;59870;50.106;8.580;2022-07-23T02:44:54;25.10;71.20
11246;DHT22;59870;50.106;8.580;2022-07-23T02:47:21;25.40;71.80
11246;DHT22;59870;50.106;8.580;2022-07-23T02:49:49;25.10;71.80
11246;DHT22;59870;50.106;8.580;2022-07-23T02:52:17;25.10;73.00
11246;DHT22;59870;50.106;8.580;2022-07-23T02:54:56;25.60;73.90
11246;DHT22;59870;50.106;8.580;2022-07-23T02:57:24;25.00;73.20
11246;DHT22;59870;50.106;8.580;2022-07-23T02:59:51;25.00;73.30
11246;DHT22;59870;50.106;8.580;2022-07-23T03:02:18;25.00;74.00
11246;DHT22;59870;50.106;8.580;2022-07-23T03:04:46;25.00;73.90
11246;DHT22;59870;50.106;8.580;2022-07-23T03:07:13;24.90;74.90
11246;DHT22;59870;50.106;8.580;2022-07-23T03:09:41;24.90;74.80
11246;DHT22;59870;50.106;8.580;2022-07-23T03:12:08;24.90;75.40
11246;DHT22;59870;50.106;8.580;2022-07-23T03:14:40;24.90;75.50
11246;DHT22;59870;50.106;8.580;2022-07-23T03:17:09;24.90;75.80
11246;DHT22;59870;50.106;8.580;2022-07-23T03:19:36;24.90;75.30
11246;DHT22;59870;50.106;8.580;2022-07-23T03:22:05;24.90;74.90
11246;DHT22;59870;50.106;8.580;2022-07-23T03:24:33;25.10;75.10
11246;DHT22;59870;50.106;8.580;2022-07-23T03:27:25;24.90;75.10
11246;DHT22;59870;50.106;8.580;2022-07-23T03:29:54;24.70;74.60
11246;DHT22;59870;50.106;8.580;2022-07-23T03:32:23;24.70;74.70
11246;DHT22;59870;50.106;8.580;2022-07-23T03:34:50;25.00;75.20
11246;DHT22;59870;50.106;8.580;2022-07-23T03:37:19;24.50;75.00
11246;DHT22;59870;50.106;8.580;2022-07-23T03:39:48;24.50;75.30
11246;DHT22;59870;50.106;8.580;2022-07-23T03:42:15;24.80;76.00
11246;DHT22;59870;50.106;8.580;2022-07-23T03:44:45;24.40;76.10
11246;DHT22;59870;50.106;8.580;2022-07-23T03:47:13;24.60;76.50
11246;DHT22;59870;50.106;8.580;2022-07-23T03:49:40;24.30;77.10
11246;DHT22;59870;50.106;8.580;2022-07-23T03:52:08;24.30;77.00
11246;DHT22;59870;50.106;8.580;2022-07-23T03:54:36;24.40;77.50
11246;DHT22;59870;50.106;8.580;2022-07-23T03:57:03;24.30;77.80
11246;DHT22;59870;50.106;8.580;2022-07-23T03:59:32;24.30;77.80
11246;DHT22;59870;50.106;8.580;2022-07-23T04:02:00;24.30;78.20
11246;DHT22;59870;50.106;8.580;2022-07-23T04:04:27;24.30;78.20
11246;DHT22;59870;50.106;8.580;2022-07-23T04:06:55;24.30;78.20
11246;DHT22;59870;50.106;8.580;2022-07-23T04:09:23;24.50;78.70
11246;DHT22;59870;50.106;8.580;2022-07-23T04:11:51;24.40;78.50
11246;DHT22;59870;50.106;8.580;2022-07-23T04:14:19;24.30;78.60
11246;DHT22;59870;50.106;8.580;2022-07-23T04:16:47;24.30;78.90
11246;DHT22;59870;50.106;8.580;2022-07-23T04:19:14;24.30;79.10
11246;DHT22;59870;50.106;8.580;2022-07-23T04:21:59;24.30;79.00
11246;DHT22;59870;50.106;8.580;2022-07-23T04:24:26;24.90;80.00
11246;DHT22;59870;50.106;8.580;2022-07-23T04:26:54;24.60;80.40
11246;DHT22;59870;50.106;8.580;2022-07-23T04:29:21;24.30;79.40
11246;DHT22;59870;50.106;8.580;2022-07-23T04:31:49;24.40;79.50
11246;DHT22;59870;50.106;8.580;2022-07-23T04:34:17;24.30;79.40
11246;DHT22;59870;50.106;8.580;2022-07-23T04:36:45;24.90;79.90
11246;DHT22;59870;50.106;8.580;2022-07-23T04:39:13;24.90;80.00
11246;DHT22;59870;50.106;8.580;2022-07-23T04:41:41;24.30;79.90
11246;DHT22;59870;50.106;8.580;2022-07-23T04:44:09;24.30;80.50
11246;DHT22;59870;50.106;8.580;2022-07-23T04:46:36;24.60;81.00
11246;DHT22;59870;50.106;8.580;2022-07-23T04:49:05;24.20;81.00
11246;DHT22;59870;50.106;8.580;2022-07-23T04:51:34;24.30;80.80
11246;DHT22;59870;50.106;8.580;2022-07-23T04:54:01;24.30;80.90
11246;DHT22;59870;50.106;8.580;2022-07-23T04:56:28;24.30;81.20
11246;DHT22;59870;50.106;8.580;2022-07-23T04:58:56;24.40;80.00
11246;DHT22;59870;50.106;8.580;2022-07-23T05:01:24;25.00;80.70
11246;DHT22;59870;50.106;8.580;2022-07-23T05:03:51;24.40;79.70
11246;DHT22;59870;50.106;8.580;2022-07-23T05:06:19;24.80;79.30
11246;DHT22;59870;50.106;8.580;2022-07-23T05:08:47;24.50;78.60
11246;DHT22;59870;50.106;8.580;2022-07-23T05:11:15;24.40;78.40
11246;DHT22;59870;50.106;8.580;2022-07-23T05:13:42;24.40;78.40
11246;DHT22;59870;50.106;8.580;2022-07-23T05:16:10;24.40;77.90
11246;DHT22;59870;50.106;8.580;2022-07-23T05:18:37;24.30;77.80
11246;DHT22;59870;50.106;8.580;2022-07-23T05:21:05;24.20;77.60
11246;DHT22;59870;50.106;8.580;2022-07-23T05:23:33;24.70;78.80
11246;DHT22;59870;50.106;8.580;2022-07-23T05:26:00;24.00;77.70
11246;DHT22;59870;50.106;8.580;2022-07-23T05:28:29;24.00;77.20
11246;DHT22;59870;50.106;8.580;2022-07-23T05:30:57;24.00;78.00
11246;DHT22;59870;50.106;8.580;2022-07-23T05:33:25;23.90;77.40
11246;DHT22;59870;50.106;8.580;2022-07-23T05:35:53;23.90;77.40
11246;DHT22;59870;50.106;8.580;2022-07-23T05:38:31;24.00;77.00
11246;DHT22;59870;50.106;8.580;2022-07-23T05:41:00;23.80;76.90
11246;DHT22;59870;50.106;8.580;2022-07-23T05:43:29;23.90;76.80
11246;DHT22;59870;50.106;8.580;2022-07-23T05:45:58;23.90;76.20
11246;DHT22;59870;50.106;8.580;2022-07-23T05:48:26;24.00;76.20
11246;DHT22;59870;50.106;8.580;2022-07-23T05:51:24;24.00;75.70
11246;DHT22;59870;50.106;8.580;2022-07-23T05:53:52;24.10;74.80
11246;DHT22;59870;50.106;8.580;2022-07-23T05:56:21;24.10;74.40
11246;DHT22;59870;50.106;8.580;2022-07-23T05:58:48;24.10;74.10
11246;DHT22;59870;50.106;8.580;2022-07-23T06:01:18;24.20;73.90
11246;DHT22;59870;50.106;8.580;2022-07-23T06:03:53;24.30;73.40
11246;DHT22;59870;50.106;8.580;2022-07-23T06:06:20;24.20;73.30
11246;DHT22;59870;50.106;8.580;2022-07-23T06:08:48;24.20;73.20
11246;DHT22;59870;50.106;8.580;2022-07-23T06:11:16;24.20;72.70
11246;DHT22;59870;50.106;8.580;2022-07-23T06:13:43;24.30;72.70
11246;DHT22;59870;50.106;8.580;2022-07-23T06:16:11;24.40;72.80
11246;DHT22;59870;50.106;8.580;2022-07-23T06:18:38;24.60;72.60
11246;DHT22;59870;50.106;8.580;2022-07-23T06:21:06;24.90;71.30
11246;DHT22;59870;50.106;8.580;2022-07-23T06:23:57;25.30;69.90
11246;DHT22;59870;50.106;8.580;2022-07-23T06:26:24;25.60;68.70
11246;DHT22;59870;50.106;8.580;2022-07-23T06:28:52;26.00;67.90
11246;DHT22;59870;50.106;8.580;2022-07-23T06:31:19;26.30;67.00
11246;DHT22;59870;50.106;8.580;2022-07-23T06:33:47;26.70;63.80
11246;DHT22;59870;50.106;8.580;2022-07-23T06:36:15;27.20;61.40
11246;DHT22;59870;50.106;8.580;2022-07-23T06:38:42;27.40;60.00
11246;DHT22;59870;50.106;8.580;2022-07-23T06:41:11;27.80;58.60
11246;DHT22;59870;50.106;8.580;2022-07-23T06:43:38;28.10;57.10
11246;DHT22;59870;50.106;8.580;2022-07-23T06:46:08;28.40;56.80
11246;DHT22;59870;50.106;8.580;2022-07-23T06:48:35;28.80;55.10
11246;DHT22;59870;50.106;8.580;2022-07-23T06:51:03;29.10;54.30
11246;DHT22;59870;50.106;8.580;2022-07-23T06:53:31;29.40;52.60
11246;DHT22;59870;50.106;8.580;2022-07-23T06:55:58;29.70;52.40
11246;DHT22;59870;50.106;8.580;2022-07-23T06:58:26;30.20;51.20
11246;DHT22;59870;50.106;8.580;2022-07-23T07:00:53;30.30;50.60
11246;DHT22;59870;50.106;8.580;2022-07-23T07:03:21;30.60;49.60
11246;DHT22;59870;50.106;8.580;2022-07-23T07:05:48;30.80;48.60
11246;DHT22;59870;50.106;8.580;2022-07-23T07:08:16;31.00;48.10
11246;DHT22;59870;50.106;8.580;2022-07-23T07:10:44;31.20;48.20
11246;DHT22;59870;50.106;8.580;2022-07-23T07:13:12;31.50;46.60
11246;DHT22;59870;50.106;8.580;2022-07-23T07:15:40;31.90;45.50
11246;DHT22;59870;50.106;8.580;2022-07-23T07:18:07;32.00;45.00
11246;DHT22;59870;50.106;8.580;2022-07-23T07:20:35;32.20;44.20
11246;DHT22;59870;50.106;8.580;2022-07-23T07:23:02;32.30;44.10
11246;DHT22;59870;50.106;8.580;2022-07-23T07:25:29;32.40;42.90
11246;DHT22;59870;50.106;8.580;2022-07-23T07:27:57;32.60;43.20
11246;DHT22;59870;50.106;8.580;2022-07-23T07:30:24;32.90;42.40
11246;DHT22;59870;50.106;8.580;2022-07-23T07:33:00;33.20;42.30
11246;DHT22;59870;50.106;8.580;2022-07-23T07:35:27;33.60;41.50
11246;DHT22;59870;50.106;8.580;2022-07-23T07:37:54;34.00;41.30
11246;DHT22;59870;50.106;8.580;2022-07-23T07:40:22;34.40;40.20
11246;DHT22;59870;50.106;8.580;2022-07-23T07:42:51;34.70;38.90
11246;DHT22;59870;50.106;8.580;2022-07-23T07:45:23;35.10;38.50
11246;DHT22;59870;50.106;8.580;2022-07-23T07:47:52;35.50;39.20
11246;DHT22;59870;50.106;8.580;2022-07-23T07:50:20;35.90;36.70
11246;DHT22;59870;50.106;8.580;2022-07-23T07:52:48;36.30;36.00
11246;DHT22;59870;50.106;8.580;2022-07-23T07:55:16;36.40;34.70
11246;DHT22;59870;50.106;8.580;2022-07-23T07:57:45;36.80;34.50
11246;DHT22;59870;50.106;8.580;2022-07-23T08:00:16;37.00;33.30
11246;DHT22;59870;50.106;8.580;2022-07-23T08:02:46;37.20;32.80
11246;DHT22;59870;50.106;8.580;2022-07-23T08:05:14;37.40;32.50
11246;DHT22;59870;50.106;8.580;2022-07-23T08:07:42;37.50;32.40
11246;DHT22;59870;50.106;8.580;2022-07-23T08:10:09;37.60;31.90
11246;DHT22;59870;50.106;8.580;2022-07-23T08:12:42;37.50;31.90
11246;DHT22;59870;50.106;8.580;2022-07-23T08:15:09;37.50;31.50
11246;DHT22;59870;50.106;8.580;2022-07-23T08:17:41;37.70;31.50
11246;DHT22;59870;50.106;8.580;2022-07-23T08:20:10;37.70;31.80
11246;DHT22;59870;50.106;8.580;2022-07-23T08:25:28;37.60;32.40
11246;DHT22;59870;50.106;8.580;2022-07-23T08:27:57;37.60;31.10
11246;DHT22;59870;50.106;8.580;2022-07-23T08:30:25;37.70;31.20
11246;DHT22;59870;50.106;8.580;2022-07-23T08:33:01;37.60;31.20
11246;DHT22;59870;50.106;8.580;2022-07-23T08:35:33;37.50;32.10
11246;DHT22;59870;50.106;8.580;2022-07-23T08:38:05;37.60;33.20
11246;DHT22;59870;50.106;8.580;2022-07-23T08:40:37;37.80;32.30
11246;DHT22;59870;50.106;8.580;2022-07-23T08:43:13;38.00;31.40
11246;DHT22;59870;50.106;8.580;2022-07-23T08:45:46;38.30;32.40
11246;DHT22;59870;50.106;8.580;2022-07-23T08:48:18;38.60;31.40
11246;DHT22;59870;50.106;8.580;2022-07-23T08:50:53;38.90;31.30
11246;DHT22;59870;50.106;8.580;2022-07-23T08:53:26;39.10;31.40
11246;DHT22;59870;50.106;8.580;2022-07-23T08:55:57;39.20;29.80
11246;DHT22;59870;50.106;8.580;2022-07-23T08:58:25;39.30;30.00
11246;DHT22;59870;50.106;8.580;2022-07-23T09:00:55;39.40;29.30
11246;DHT22;59870;50.106;8.580;2022-07-23T09:03:32;39.10;29.60
11246;DHT22;59870;50.106;8.580;2022-07-23T09:06:01;39.00;29.90
11246;DHT22;59870;50.106;8.580;2022-07-23T09:08:37;38.90;29.80
11246;DHT22;59870;50.106;8.580;2022-07-23T09:11:06;38.80;29.80
11246;DHT22;59870;50.106;8.580;2022-07-23T09:16:12;39.00;29.70
11246;DHT22;59870;50.106;8.580;2022-07-23T09:21:24;39.10;29.60
11246;DHT22;59870;50.106;8.580;2022-07-23T09:24:24;39.20;29.90
11246;DHT22;59870;50.106;8.580;2022-07-23T09:26:51;39.00;29.20
11246;DHT22;59870;50.106;8.580;2022-07-23T09:29:24;39.10;29.50
11246;DHT22;59870;50.106;8.580;2022-07-23T09:31:53;38.70;29.50
11246;DHT22;59870;50.106;8.580;2022-07-23T09:37:29;38.90;29.90
11246;DHT22;59870;50.106;8.580;2022-07-23T09:40:07;38.90;29.60
11246;DHT22;59870;50.106;8.580;2022-07-23T09:42:35;38.70;29.90
11246;DHT22;59870;50.106;8.580;2022-07-23T09:45:02;38.70;30.00
11246;DHT22;59870;50.106;8.580;2022-07-23T09:47:31;38.80;30.40
11246;DHT22;59870;50.106;8.580;2022-07-23T09:50:07;38.80;30.20
11246;DHT22;59870;50.106;8.580;2022-07-23T09:52:45;39.10;30.60
11246;DHT22;59870;50.106;8.580;2022-07-23T09:55:16;39.20;29.90
11246;DHT22;59870;50.106;8.580;2022-07-23T09:57:45;39.20;29.50
11246;DHT22;59870;50.106;8.580;2022-07-23T10:00:14;38.90;29.60
11246;DHT22;59870;50.106;8.580;2022-07-23T10:02:42;38.50;29.90
11246;DHT22;59870;50.106;8.580;2022-07-23T10:05:37;38.40;30.90
11246;DHT22;59870;50.106;8.580;2022-07-23T10:08:34;38.10;30.80
11246;DHT22;59870;50.106;8.580;2022-07-23T10:11:04;37.60;30.70
11246;DHT22;59870;50.106;8.580;2022-07-23T10:13:44;37.30;31.60
11246;DHT22;59870;50.106;8.580;2022-07-23T10:16:33;37.00;31.50
11246;DHT22;59870;50.106;8.580;2022-07-23T10:19:02;36.70;32.80
11246;DHT22;59870;50.106;8.580;2022-07-23T10:24:28;36.50;32.20
11246;DHT22;59870;50.106;8.580;2022-07-23T10:30:09;36.30;33.00
11246;DHT22;59870;50.106;8.580;2022-07-23T10:38:13;35.60;33.60
11246;DHT22;59870;50.106;8.580;2022-07-23T10:44:16;35.10;34.00
11246;DHT22;59870;50.106;8.580;2022-07-23T10:47:03;34.90;34.20
11246;DHT22;59870;50.106;8.580;2022-07-23T10:49:50;34.70;34.40
11246;DHT22;59870;50.106;8.580;2022-07-23T10:52:22;34.40;35.60
11246;DHT22;59870;50.106;8.580;2022-07-23T10:57:49;34.10;35.80
11246;DHT22;59870;50.106;8.580;2022-07-23T11:00:23;34.00;37.10
11246;DHT22;59870;50.106;8.580;2022-07-23T11:02:53;33.80;37.00
11246;DHT22;59870;50.106;8.580;2022-07-23T11:05:23;33.70;37.50
11246;DHT22;59870;50.106;8.580;2022-07-23T11:10:41;33.50;37.60
11246;DHT22;59870;50.106;8.580;2022-07-23T11:24:12;33.50;38.10
11246;DHT22;59870;50.106;8.580;2022-07-23T11:32:27;33.80;37.80
11246;DHT22;59870;50.106;8.580;2022-07-23T11:34:55;33.90;37.90
11246;DHT22;59870;50.106;8.580;2022-07-23T11:37:32;33.90;37.70
11246;DHT22;59870;50.106;8.580;2022-07-23T11:40:03;33.90;37.20
11246;DHT22;59870;50.106;8.580;2022-07-23T11:42:32;34.00;36.80
11246;DHT22;59870;50.106;8.580;2022-07-23T11:45:00;34.10;37.60
11246;DHT22;59870;50.106;8.580;2022-07-23T11:47:27;34.10;37.70
11246;DHT22;59870;50.106;8.580;2022-07-23T11:49:56;34.10;36.80
11246;DHT22;59870;50.106;8.580;2022-07-23T11:52:25;34.10;38.10
11246;DHT22;59870;50.106;8.580;2022-07-23T11:54:59;34.10;37.70
11246;DHT22;59870;50.106;8.580;2022-07-23T11:57:36;34.10;36.30
11246;DHT22;59870;50.106;8.580;2022-07-23T12:00:10;33.90;37.30
11246;DHT22;59870;50.106;8.580;2022-07-23T12:02:45;33.70;36.50
11246;DHT22;59870;50.106;8.580;2022-07-23T12:07:45;33.50;37.30
11246;DHT22;59870;50.106;8.580;2022-07-23T12:10:35;33.50;36.60
11246;DHT22;59870;50.106;8.580;2022-07-23T12:13:19;33.90;36.70
11246;DHT22;59870;50.106;8.580;2022-07-23T12:15:56;33.50;35.60
11246;DHT22;59870;50.106;8.580;2022-07-23T12:18:25;33.50;38.60
11246;DHT22;59870;50.106;8.580;2022-07-23T12:20:55;33.50;37.50
11246;DHT22;59870;50.106;8.580;2022-07-23T12:23:25;33.50;37.40
11246;DHT22;59870;50.106;8.580;2022-07-23T12:25:55;33.60;36.60
11246;DHT22;59870;50.106;8.580;2022-07-23T12:28:35;33.70;36.00
11246;DHT22;59870;50.106;8.580;2022-07-23T12:31:05;33.60;36.90
11246;DHT22;59870;50.106;8.580;2022-07-23T12:33:36;33.70;36.00
11246;DHT22;59870;50.106;8.580;2022-07-23T12:36:06;33.70;34.80
11246;DHT22;59870;50.106;8.580;2022-07-23T12:38:43;33.80;35.70
11246;DHT22;59870;50.106;8.580;2022-07-23T12:41:11;33.90;35.90
11246;DHT22;59870;50.106;8.580;2022-07-23T12:43:40;33.90;34.70
11246;DHT22;59870;50.106;8.580;2022-07-23T12:46:10;33.90;33.60
11246;DHT22;59870;50.106;8.580;2022-07-23T12:48:49;34.20;34.30
11246;DHT22;59870;50.106;8.580;2022-07-23T12:51:22;34.00;35.10
11246;DHT22;59870;50.106;8.580;2022-07-23T12:54:19;34.00;35.80
11246;DHT22;59870;50.106;8.580;2022-07-23T12:56:46;34.00;35.70
11246;DHT22;59870;50.106;8.580;2022-07-23T12:59:15;34.10;35.00
11246;DHT22;59870;50.106;8.580;2022-07-23T13:02:03;34.10;35.30
11246;DHT22;59870;50.106;8.580;2022-07-23T13:04:31;34.20;34.10
11246;DHT22;59870;50.106;8.580;2022-07-23T13:07:01;34.20;34.20
11246;DHT22;59870;50.106;8.580;2022-07-23T13:09:33;34.20;34.20
11246;DHT22;59870;50.106;8.580;2022-07-23T13:12:08;34.20;35.20
11246;DHT22;59870;50.106;8.580;2022-07-23T13:15:00;34.30;35.70
11246;DHT22;59870;50.106;8.580;2022-07-23T13:17:31;34.30;34.90
11246;DHT22;59870;50.106;8.580;2022-07-23T13:20:05;34.30;35.00
11246;DHT22;59870;50.106;8.580;2022-07-23T13:22:34;34.40;34.10
11246;DHT22;59870;50.106;8.580;2022-07-23T13:25:02;34.80;35.20
11246;DHT22;59870;50.106;8.580;2022-07-23T13:27:31;34.40;33.20
11246;DHT22;59870;50.106;8.580;2022-07-23T13:30:06;34.50;34.70
11246;DHT22;59870;50.106;8.580;2022-07-23T13:32:34;34.50;35.20
11246;DHT22;59870;50.106;8.580;2022-07-23T13:35:02;34.50;34.80
11246;DHT22;59870;50.106;8.580;2022-07-23T13:37:29;34.40;35.00
11246;DHT22;59870;50.106;8.580;2022-07-23T13:39:56;34.50;35.00
11246;DHT22;59870;50.106;8.580;2022-07-23T13:42:24;34.50;34.50
11246;DHT22;59870;50.106;8.580;2022-07-23T13:44:52;34.50;34.90
11246;DHT22;59870;50.106;8.580;2022-07-23T13:47:19;34.60;34.60
11246;DHT22;59870;50.106;8.580;2022-07-23T13:49:47;34.50;33.70
11246;DHT22;59870;50.106;8.580;2022-07-23T13:52:14;35.00;33.70
11246;DHT22;59870;50.106;8.580;2022-07-23T13:54:43;34.50;33.80
11246;DHT22;59870;50.106;8.580;2022-07-23T13:57:10;34.40;34.40
11246;DHT22;59870;50.106;8.580;2022-07-23T13:59:38;34.30;34.60
11246;DHT22;59870;50.106;8.580;2022-07-23T14:02:06;34.30;34.70
11246;DHT22;59870;50.106;8.580;2022-07-23T14:04:52;34.40;34.70
11246;DHT22;59870;50.106;8.580;2022-07-23T14:07:20;34.40;34.30
11246;DHT22;59870;50.106;8.580;2022-07-23T14:09:48;34.40;34.40
11246;DHT22;59870;50.106;8.580;2022-07-23T14:12:16;34.40;34.50
11246;DHT22;59870;50.106;8.580;2022-07-23T14:14:44;35.00;36.00
11246;DHT22;59870;50.106;8.580;2022-07-23T14:17:12;34.50;35.50
11246;DHT22;59870;50.106;8.580;2022-07-23T14:19:40;34.50;33.60
11246;DHT22;59870;50.106;8.580;2022-07-23T14:22:07;34.50;34.80
11246;DHT22;59870;50.106;8.580;2022-07-23T14:24:34;34.50;34.50
11246;DHT22;59870;50.106;8.580;2022-07-23T14:27:03;34.50;34.40
11246;DHT22;59870;50.106;8.580;2022-07-23T14:29:32;34.60;34.30
11246;DHT22;59870;50.106;8.580;2022-07-23T14:32:01;35.00;34.30
11246;DHT22;59870;50.106;8.580;2022-07-23T14:34:29;34.60;34.20
11246;DHT22;59870;50.106;8.580;2022-07-23T14:36:58;34.70;33.40
11246;DHT22;59870;50.106;8.580;2022-07-23T14:39:25;34.60;33.90
11246;DHT22;59870;50.106;8.580;2022-07-23T14:41:53;34.60;33.70
11246;DHT22;59870;50.106;8.580;2022-07-23T14:44:21;34.60;33.20
11246;DHT22;59870;50.106;8.580;2022-07-23T14:46:48;34.60;32.20
11246;DHT22;59870;50.106;8.580;2022-07-23T14:49:16;34.50;32.10
11246;DHT22;59870;50.106;8.580;2022-07-23T14:51:43;34.40;33.50
11246;DHT22;59870;50.106;8.580;2022-07-23T14:54:11;34.30;34.10
11246;DHT22;59870;50.106;8.580;2022-07-23T14:56:42;34.30;33.90
11246;DHT22;59870;50.106;8.580;2022-07-23T14:59:12;34.30;33.00
11246;DHT22;59870;50.106;8.580;2022-07-23T15:01:40;34.30;33.30
11246;DHT22;59870;50.106;8.580;2022-07-23T15:04:07;34.20;33.00
11246;DHT22;59870;50.106;8.580;2022-07-23T15:06:54;34.20;33.60
11246;DHT22;59870;50.106;8.580;2022-07-23T15:09:22;34.20;32.90
11246;DHT22;59870;50.106;8.580;2022-07-23T15:12:08;34.20;33.00
11246;DHT22;59870;50.106;8.580;2022-07-23T15:14:39;34.20;33.00
11246;DHT22;59870;50.106;8.580;2022-07-23T15:17:06;34.20;32.90
11246;DHT22;59870;50.106;8.580;2022-07-23T15:19:34;34.10;33.20
11246;DHT22;59870;50.106;8.580;2022-07-23T15:22:01;34.00;32.30
11246;DHT22;59870;50.106;8.580;2022-07-23T15:24:29;34.00;32.20
11246;DHT22;59870;50.106;8.580;2022-07-23T15:26:57;34.40;32.60
11246;DHT22;59870;50.106;8.580;2022-07-23T15:29:34;33.90;33.00
11246;DHT22;59870;50.106;8.580;2022-07-23T15:32:02;33.90;32.60
11246;DHT22;59870;50.106;8.580;2022-07-23T15:34:30;33.90;31.70
11246;DHT22;59870;50.106;8.580;2022-07-23T15:37:01;33.90;32.50
11246;DHT22;59870;50.106;8.580;2022-07-23T15:39:37;33.90;33.20
11246;DHT22;59870;50.106;8.580;2022-07-23T15:42:05;33.80;32.40
11246;DHT22;59870;50.106;8.580;2022-07-23T15:44:44;33.80;32.90
11246;DHT22;59870;50.106;8.580;2022-07-23T15:47:16;33.80;32.50
11246;DHT22;59870;50.106;8.580;2022-07-23T15:49:45;33.70;32.40
11246;DHT22;59870;50.106;8.580;2022-07-23T15:52:13;33.70;32.40
11246;DHT22;59870;50.106;8.580;2022-07-23T15:54:41;33.70;32.70
11246;DHT22;59870;50.106;8.580;2022-07-23T15:57:09;33.60;31.80
11246;DHT22;59870;50.106;8.580;2022-07-23T15:59:37;33.50;32.50
11246;DHT22;59870;50.106;8.580;2022-07-23T16:02:04;33.50;32.30
11246;DHT22;59870;50.106;8.580;2022-07-23T16:04:32;33.50;32.20
11246;DHT22;59870;50.106;8.580;2022-07-23T16:07:00;33.40;32.30
11246;DHT22;59870;50.106;8.580;2022-07-23T16:09:28;33.20;31.90
11246;DHT22;59870;50.106;8.580;2022-07-23T16:11:55;33.40;32.30
11246;DHT22;59870;50.106;8.580;2022-07-23T16:14:23;32.90;33.40
11246;DHT22;59870;50.106;8.580;2022-07-23T16:16:50;32.90;33.00
11246;DHT22;59870;50.106;8.580;2022-07-23T16:19:18;32.90;32.60
11246;DHT22;59870;50.106;8.580;2022-07-23T16:21:45;32.80;33.10
11246;DHT22;59870;50.106;8.580;2022-07-23T16:24:12;32.70;33.30
11246;DHT22;59870;50.106;8.580;2022-07-23T16:26:40;32.70;32.70
11246;DHT22;59870;50.106;8.580;2022-07-23T16:29:16;32.60;33.50
11246;DHT22;59870;50.106;8.580;2022-07-23T16:31:47;32.70;34.20
11246;DHT22;59870;50.106;8.580;2022-07-23T16:34:15;32.60;33.70
11246;DHT22;59870;50.106;8.580;2022-07-23T16:36:43;32.60;33.80
11246;DHT22;59870;50.106;8.580;2022-07-23T16:39:11;32.60;34.00